Time;durP1;ratioP1;P1;durP2;ratioP2;P2;SDS_P1;SDS_P2;PMS_P1;PMS_P2;Temp;Humidity;BMP_temperature;BMP_pressure;BME280_temperature;BME280_humidity;BME280_pressure;Samples;Min_cycle;Max_cycle;Signal;HPM_P1;HPM_P2
2022/10/03 03:02:36;;;;;;;35.08;3.70;;;;;;;10.86;63.95;101255.38;5556588;23;20048;-71
2022/10/03 03:05:14;;;;;;;23.88;3.92;;;;;;;10.55;65.11;101258.38;4954642;29;20066;-72
2022/10/03 03:07:54;;;;;;;23.63;3.83;;;;;;;10.65;64.75;101258.31;4955325;28;20051;-73
2022/10/03 03:10:20;;;;;;;23.45;4.00;;;;;;;10.42;65.53;101253.28;4955424;28;20054;-71
2022/10/03 03:13:25;;;;;;;24.02;3.55;;;;;;;10.72;64.59;101259.41;4954309;29;20054;-72
2022/10/03 03:16:32;;;;;;;21.92;3.90;;;;;;;10.45;65.02;101270.94;4953202;28;20059;-74
2022/10/03 03:19:17;;;;;;;18.45;3.58;;;;;;;10.64;64.59;101262.84;4952428;28;20106;-71
2022/10/03 03:22:24;;;;;;;35.70;4.68;;;;;;;10.50;65.24;101266.84;4955587;29;20047;-71
2022/10/03 03:25:21;;;;;;;32.13;4.00;;;;;;;10.66;64.58;101260.03;4955969;28;20044;-71
2022/10/03 03:28:06;;;;;;;29.38;4.13;;;;;;;10.36;65.46;101271.81;4951961;28;20047;-70
2022/10/03 03:30:49;;;;;;;34.17;4.57;;;;;;;10.64;64.56;101267.34;4950989;28;20439;-73
2022/10/03 03:33:33;;;;;;;32.08;4.55;;;;;;;10.44;65.31;101267.41;4949427;28;20510;-73
2022/10/03 03:36:34;;;;;;;30.48;3.97;;;;;;;10.60;65.02;101276.69;4951975;29;20048;-72
2022/10/03 03:39:19;;;;;;;25.95;3.53;;;;;;;10.85;64.11;101270.66;4956542;29;20058;-73
2022/10/03 03:41:49;;;;;;;30.80;3.80;;;;;;;10.56;64.83;101280.69;4953621;29;20032;-69
2022/10/03 03:44:18;;;;;;;32.83;4.25;;;;;;;10.56;65.16;101269.94;4955647;28;20035;-72
2022/10/03 03:47:04;;;;;;;27.45;3.58;;;;;;;10.46;65.58;101272.63;4955633;29;20044;-73
2022/10/03 03:50:05;;;;;;;24.42;4.53;;;;;;;10.73;65.05;101282.59;4958727;29;20035;-71
2022/10/03 03:52:59;;;;;;;28.88;3.40;;;;;;;10.52;65.48;101276.59;4955209;28;20039;-73
2022/10/03 03:55:50;;;;;;;23.50;3.60;;;;;;;10.75;64.64;101285.94;4954864;29;20050;-74
2022/10/03 03:58:35;;;;;;;25.65;3.35;;;;;;;10.60;65.31;101284.75;4955124;29;20053;-74
2022/10/03 04:01:39;;;;;;;19.25;3.25;;;;;;;10.54;65.58;101288.00;4954955;28;20055;-73
2022/10/03 04:04:09;;;;;;;26.80;3.53;;;;;;;10.61;65.28;101289.13;4936463;29;20123;-72
2022/10/03 04:06:38;;;;;;;23.17;3.08;;;;;;;10.79;64.79;101298.09;4936984;29;20069;-73
2022/10/03 04:09:38;;;;;;;27.08;4.30;;;;;;;10.76;64.63;101293.03;4936853;29;20056;-71
2022/10/03 04:12:09;;;;;;;22.45;3.95;;;;;;;10.63;65.19;101297.88;4936998;29;20042;-73
2022/10/03 04:14:38;;;;;;;22.92;4.55;;;;;;;10.66;64.91;101305.63;4935877;29;20059;-72
2022/10/03 04:20:20;;;;;;;23.85;3.45;;;;;;;10.46;65.80;101310.19;4934756;29;20056;-74
2022/10/03 04:23:04;;;;;;;19.88;3.67;;;;;;;10.70;64.93;101304.34;4932451;29;20083;-74
2022/10/03 04:25:53;;;;;;;31.92;4.00;;;;;;;10.53;65.12;101305.09;4921973;29;20046;-72
2022/10/03 04:28:37;;;;;;;30.20;4.90;;;;;;;10.78;64.45;101312.50;4943622;29;20108;-72
2022/10/03 04:31:24;;;;;;;31.95;4.00;;;;;;;10.94;63.86;101312.72;4937444;29;20060;-72
2022/10/03 04:34:05;;;;;;;27.02;3.78;;;;;;;10.56;65.06;101312.88;4936787;29;20064;-74
2022/10/03 04:36:42;;;;;;;26.30;3.55;;;;;;;10.69;64.72;101316.09;4934776;29;20039;-72
2022/10/03 04:39:27;;;;;;;26.02;3.63;;;;;;;10.69;64.66;101313.41;4933797;29;20043;-74
2022/10/03 04:42:08;;;;;;;23.88;3.55;;;;;;;10.56;64.95;101307.50;4932067;29;20056;-73
2022/10/03 04:45:03;;;;;;;29.10;4.05;;;;;;;10.56;64.95;101304.81;4937431;29;20052;-72
2022/10/03 04:47:52;;;;;;;26.95;3.60;;;;;;;10.76;64.79;101314.50;4938170;29;20052;-73
2022/10/03 04:50:34;;;;;;;25.73;3.72;;;;;;;10.52;65.17;101311.47;4939313;29;20048;-69
2022/10/03 04:53:21;;;;;;;19.30;3.15;;;;;;;10.36;65.54;101309.34;4936290;29;20054;-73
2022/10/03 04:55:52;;;;;;;23.95;3.22;;;;;;;10.53;64.88;101313.16;4935309;29;20044;-74
2022/10/03 04:59:08;;;;;;;34.00;4.10;;;;;;;10.46;65.13;101315.53;4937643;29;20055;-68
2022/10/03 05:01:48;;;;;;;26.58;3.45;;;;;;;10.34;64.96;101314.88;4896419;29;20051;-72
2022/10/03 05:04:15;;;;;;;19.05;3.42;;;;;;;10.55;64.59;101311.16;4898816;29;20033;-74
2022/10/03 05:06:54;;;;;;;24.13;3.30;;;;;;;10.55;64.82;101321.88;4898998;29;20053;-73
2022/10/03 05:09:31;;;;;;;35.08;3.45;;;;;;;10.61;64.47;101319.47;4897952;29;20049;-74
2022/10/03 05:12:09;;;;;;;23.80;3.60;;;;;;;10.53;64.67;101321.22;4897762;29;20121;-74
2022/10/03 05:14:55;;;;;;;20.52;3.72;;;;;;;10.54;64.82;101330.94;4897082;29;20060;-74
2022/10/03 05:17:32;;;;;;;29.35;4.80;;;;;;;10.67;64.16;101335.00;4897785;29;20051;-70
2022/10/03 05:20:21;;;;;;;30.08;4.15;;;;;;;10.37;65.45;101332.50;4880524;29;20057;-73
2022/10/03 05:23:16;;;;;;;29.13;4.10;;;;;;;10.55;65.01;101335.31;4878575;29;20061;-72
2022/10/03 05:25:53;;;;;;;32.42;4.75;;;;;;;10.58;64.82;101345.75;4875855;29;20049;-73
2022/10/03 05:28:34;;;;;;;28.38;3.72;;;;;;;10.76;64.17;101330.59;4878494;29;20205;-73
2022/10/03 05:31:36;;;;;;;25.63;3.17;;;;;;;10.35;65.40;101332.66;4876826;29;20499;-73
2022/10/03 05:34:22;;;;;;;23.15;3.97;;;;;;;10.56;64.78;101345.06;4894779;29;20049;-74
2022/10/03 05:37:12;;;;;;;33.63;4.05;;;;;;;10.71;64.27;101343.59;4897125;29;20418;-70
2022/10/03 05:39:58;;;;;;;26.67;3.10;;;;;;;10.49;64.79;101348.28;4897309;29;20057;-73
2022/10/03 05:42:49;;;;;;;29.55;3.97;;;;;;;10.68;64.27;101351.94;4898123;29;20472;-73
2022/10/03 05:45:51;;;;;;;32.72;3.67;;;;;;;10.65;64.37;101355.78;4899465;29;20477;-74
2022/10/03 05:48:31;;;;;;;32.05;3.67;;;;;;;10.61;64.64;101359.72;4897721;29;20049;-74
2022/10/03 05:51:01;;;;;;;21.70;3.55;;;;;;;10.56;64.72;101350.44;4896495;29;20053;-72
2022/10/03 05:53:49;;;;;;;32.75;4.07;;;;;;;10.49;64.38;101355.50;4896048;29;20037;-72
2022/10/03 05:56:53;;;;;;;23.05;3.40;;;;;;;10.55;64.66;101359.44;4897664;29;20044;-73
2022/10/03 05:59:39;;;;;;;26.60;6.07;;;;;;;10.68;64.21;101357.31;4897947;29;20049;-68
2022/10/03 06:02:39;;;;;;;23.40;4.68;;;;;;;10.66;64.06;101368.19;4896838;29;20055;-73
2022/10/03 06:05:28;;;;;;;28.05;4.00;;;;;;;10.66;63.67;101367.34;4896284;29;20040;-73
2022/10/03 06:08:24;;;;;;;26.58;3.85;;;;;;;10.78;63.53;101376.91;4905339;29;20120;-73
2022/10/03 06:11:18;;;;;;;28.55;3.88;;;;;;;10.98;63.33;101373.19;4920324;29;20052;-70
2022/10/03 06:13:54;;;;;;;21.90;4.10;;;;;;;10.87;63.33;101380.56;4943653;29;20099;-73
2022/10/03 06:16:45;;;;;;;30.88;3.97;;;;;;;10.82;63.58;101383.66;4935523;29;20107;-71
2022/10/03 06:19:49;;;;;;;22.58;3.03;;;;;;;10.71;63.94;101381.16;4934320;29;20048;-75
2022/10/03 06:22:44;;;;;;;33.17;4.70;;;;;;;10.56;64.57;101390.69;4855076;29;20059;-74
2022/10/03 06:25:37;;;;;;;25.60;3.17;;;;;;;11.08;62.95;101401.84;4915164;29;20044;-72
2022/10/03 06:28:27;;;;;;;26.73;4.50;;;;;;;11.09;62.87;101407.03;4914782;29;20032;-72
2022/10/03 06:34:19;;;;;;;24.33;3.40;;;;;;;10.98;63.25;101416.13;5404079;23;20122;-62
2022/10/03 06:37:13;;;;;;;23.13;2.92;;;;;;;11.13;62.51;101419.19;4954466;28;20054;-63
2022/10/03 06:40:07;;;;;;;28.95;4.70;;;;;;;11.01;62.89;101415.00;4916147;29;20048;-65
2022/10/03 06:42:56;;;;;;;31.42;3.42;;;;;;;11.06;62.97;101412.72;4939533;28;20395;-65
2022/10/03 06:45:42;;;;;;;19.90;2.83;;;;;;;11.20;62.53;101417.59;4954807;28;20043;-63
2022/10/03 06:48:52;;;;;;;30.25;3.38;;;;;;;11.10;62.66;101424.88;4960119;28;20074;-63
2022/10/03 06:51:34;;;;;;;29.33;3.85;;;;;;;11.29;62.29;101420.41;4955363;28;20053;-64
2022/10/03 06:54:14;;;;;;;27.98;4.45;;;;;;;11.18;62.47;101416.91;4955188;28;20059;-63
2022/10/03 06:57:01;;;;;;;28.27;4.20;;;;;;;11.16;62.39;101431.47;4955209;28;20047;-62
2022/10/03 06:59:46;;;;;;;21.85;3.85;;;;;;;11.41;61.72;101433.53;4954690;28;20047;-63
2022/10/03 07:02:34;;;;;;;21.58;4.30;;;;;;;11.44;61.44;101422.44;4954223;28;20498;-63
2022/10/03 07:05:35;;;;;;;25.63;3.72;;;;;;;12.08;59.79;101428.75;4954567;28;20111;-63
2022/10/03 07:08:44;;;;;;;25.40;4.07;;;;;;;11.98;59.56;101430.66;4955119;28;20426;-63
2022/10/03 07:11:42;;;;;;;24.40;3.10;;;;;;;11.82;60.14;101425.94;4954118;28;20066;-64
2022/10/03 07:14:42;;;;;;;29.40;4.78;;;;;;;11.92;59.37;101425.88;4954023;28;20990;-63
2022/10/03 07:17:33;;;;;;;19.35;3.63;;;;;;;12.43;57.95;101445.06;4952483;28;20067;-63
2022/10/03 07:20:12;;;;;;;16.10;3.00;;;;;;;12.35;58.02;101435.91;4948872;28;20058;-63
2022/10/03 07:23:16;;;;;;;22.40;3.95;;;;;;;12.14;59.17;101448.78;4953931;28;20050;-63
2022/10/03 07:26:02;;;;;;;26.02;4.03;;;;;;;11.85;59.45;101446.31;4953405;28;20043;-63
2022/10/03 07:28:38;;;;;;;24.55;3.55;;;;;;;11.81;59.78;101445.78;4954030;28;20487;-63
2022/10/03 07:31:31;;;;;;;14.75;3.10;;;;;;;11.92;59.22;101459.00;4954546;28;20047;-63
2022/10/03 07:34:16;;;;;;;23.73;3.97;;;;;;;11.75;59.80;101458.97;4954138;28;20051;-63
2022/10/03 07:40:14;;;;;;;22.75;3.30;;;;;;;12.20;58.85;101460.81;4953978;28;20046;-63
2022/10/03 07:43:11;;;;;;;18.93;3.73;;;;;;;12.22;58.66;101465.03;4953597;28;20062;-63
2022/10/03 07:45:45;;;;;;;23.48;3.33;;;;;;;12.61;57.12;101451.25;4953543;28;20302;-63
2022/10/03 07:48:49;;;;;;;25.48;4.75;;;;;;;12.82;56.23;101470.63;4953734;28;20054;-63
2022/10/03 07:51:22;;;;;;;22.40;3.67;;;;;;;13.14;55.66;101471.88;4954058;28;20047;-64
2022/10/03 07:54:07;;;;;;;26.83;3.83;;;;;;;12.69;56.84;101472.00;4953648;28;20419;-64
2022/10/03 07:56:52;;;;;;;20.38;3.92;;;;;;;12.83;56.45;101477.75;4953391;28;20058;-64
2022/10/03 07:59:46;;;;;;;21.67;4.07;;;;;;;12.62;57.09;101487.94;4953542;28;20055;-64
2022/10/03 08:02:37;;;;;;;19.67;3.47;;;;;;;12.58;57.14;101487.41;4953286;28;20043;-64
2022/10/03 08:05:37;;;;;;;27.95;3.97;;;;;;;12.20;58.61;101480.47;4953166;28;20055;-63
2022/10/03 08:08:40;;;;;;;24.40;3.47;;;;;;;12.54;57.25;101493.25;4953035;28;20058;-67
2022/10/03 08:11:30;;;;;;;25.30;3.35;;;;;;;12.44;57.56;101495.19;4952561;28;20055;-63
2022/10/03 08:14:07;;;;;;;24.00;3.90;;;;;;;12.13;58.29;101487.47;4952694;28;20051;-65
2022/10/03 08:17:11;;;;;;;19.52;4.20;;;;;;;12.45;57.44;101504.94;4952472;28;20054;-63
2022/10/03 08:20:07;;;;;;;22.50;3.88;;;;;;;12.94;55.75;101497.31;4956469;28;20487;-63
2022/10/03 08:23:01;;;;;;;22.02;3.83;;;;;;;13.88;53.16;101501.94;4956822;28;20050;-64
2022/10/03 08:26:06;;;;;;;20.55;3.10;;;;;;;14.36;51.73;101497.66;4956722;28;20043;-65
2022/10/03 08:28:42;;;;;;;21.13;4.63;;;;;;;15.04;49.26;101508.19;4955666;28;20039;-63
2022/10/03 08:31:35;;;;;;;22.75;3.78;;;;;;;14.92;49.41;101513.09;4957488;28;20054;-63
2022/10/03 08:34:05;;;;;;;23.52;3.13;;;;;;;14.65;50.54;101513.41;4954765;28;20087;-64
2022/10/03 08:37:11;;;;;;;21.27;3.90;;;;;;;14.20;50.96;101509.28;4956242;28;20057;-64
2022/10/03 08:40:15;;;;;;;22.92;4.05;;;;;;;14.68;50.13;101523.88;4916187;29;20048;-63
2022/10/03 08:43:01;;;;;;;19.35;3.30;;;;;;;14.93;48.79;101527.44;4901551;29;20052;-63
2022/10/03 08:46:02;;;;;;;17.25;3.28;;;;;;;14.90;48.92;101525.09;4884909;29;20044;-64
2022/10/03 08:48:50;;;;;;;23.17;4.63;;;;;;;14.62;49.74;101517.28;4897752;29;20052;-63
2022/10/03 08:51:36;;;;;;;19.95;2.90;;;;;;;15.15;48.73;101517.78;4897379;29;20045;-64
2022/10/03 08:54:18;;;;;;;19.15;2.95;;;;;;;15.48;47.89;101530.25;4896787;29;20068;-64
2022/10/03 08:57:13;;;;;;;17.88;3.60;;;;;;;15.75;47.34;101530.03;4895093;29;20099;-62
2022/10/03 09:00:12;;;;;;;21.27;3.53;;;;;;;16.36;45.77;101540.03;4863905;29;20049;-64
2022/10/03 09:02:47;;;;;;;31.50;6.55;;;;;;;15.51;47.49;101526.34;4877755;29;20421;-64
2022/10/03 09:06:23;;;;;;;20.85;3.83;;;;;;;15.40;47.80;101537.53;4878844;29;20112;-63
2022/10/03 09:09:17;;;;;;;18.10;3.10;;;;;;;15.13;47.73;101520.69;4879065;29;20049;-63
2022/10/03 09:11:56;;;;;;;21.80;3.47;;;;;;;15.30;47.71;101529.63;4913887;29;20055;-63
2022/10/03 09:14:33;;;;;;;21.20;3.63;;;;;;;15.34;47.32;101522.84;4918522;29;20127;-64
2022/10/03 09:17:03;;;;;;;24.45;4.18;;;;;;;15.05;47.58;101525.22;4919298;29;20496;-63
2022/10/03 09:19:51;;;;;;;17.17;3.22;;;;;;;14.90;48.31;101519.69;4918963;29;20048;-65
2022/10/03 09:22:26;;;;;;;21.95;4.25;;;;;;;13.75;50.66;101535.56;4918090;29;20470;-63
2022/10/03 09:25:14;;;;;;;17.67;3.42;;;;;;;14.29;49.32;101533.44;4917657;29;20059;-66
2022/10/03 09:28:11;;;;;;;31.45;4.82;;;;;;;14.72;48.42;101534.19;4918126;29;20047;-63
2022/10/03 09:30:48;;;;;;;23.08;3.40;;;;;;;15.20;47.30;101531.66;4917028;29;20048;-63
2022/10/03 09:33:43;;;;;;;23.25;4.43;;;;;;;15.27;47.22;101531.81;4918324;29;20048;-63
2022/10/03 09:36:33;;;;;;;15.10;3.13;;;;;;;15.49;46.80;101533.78;4918454;29;20040;-64
2022/10/03 09:39:42;;;;;;;14.32;3.95;;;;;;;15.38;47.29;101528.75;4918604;29;20362;-64
2022/10/03 09:42:37;;;;;;;25.98;3.65;;;;;;;15.06;47.97;101527.78;4932422;28;20506;-63
2022/10/03 09:45:31;;;;;;;20.38;3.78;;;;;;;16.60;43.77;101536.34;4955866;28;20399;-63
2022/10/03 09:48:22;;;;;;;21.02;3.83;;;;;;;17.51;42.48;101540.00;4955433;28;20070;-64
2022/10/03 09:51:12;;;;;;;15.07;3.08;;;;;;;17.64;41.46;101535.78;4941675;28;20052;-64
2022/10/03 09:54:00;;;;;;;20.73;4.05;;;;;;;17.17;42.17;101535.06;4936579;28;20040;-64
2022/10/03 09:57:03;;;;;;;22.92;4.47;;;;;;;16.42;44.83;101533.06;4936375;28;20051;-66
2022/10/03 09:59:56;;;;;;;20.52;3.83;;;;;;;16.08;44.62;101539.69;4935156;29;20036;-63
2022/10/03 10:02:41;;;;;;;18.60;3.30;;;;;;;15.77;45.24;101534.22;4934444;28;20043;-69
2022/10/03 10:05:39;;;;;;;15.60;2.92;;;;;;;15.04;47.30;101546.00;4935541;28;20058;-64
2022/10/03 10:08:18;;;;;;;19.42;3.67;;;;;;;14.98;47.50;101544.84;4919105;29;20055;-63
2022/10/03 10:10:58;;;;;;;25.90;3.65;;;;;;;14.54;48.19;101541.56;4933005;28;20063;-63
2022/10/03 10:14:01;;;;;;;17.10;3.03;;;;;;;14.74;48.11;101537.59;4917794;29;20048;-63
2022/10/03 10:16:54;;;;;;;19.58;3.28;;;;;;;14.52;48.86;101532.78;4916362;29;20044;-63
2022/10/03 10:19:45;;;;;;;17.23;3.08;;;;;;;15.98;46.15;101540.91;4921225;29;20406;-62
2022/10/03 10:22:28;;;;;;;18.25;3.47;;;;;;;16.70;44.55;101540.69;4936646;28;20051;-64
2022/10/03 10:24:58;;;;;;;12.75;3.08;;;;;;;17.22;42.58;101532.63;4935589;29;20040;-66
2022/10/03 10:27:49;;;;;;;20.88;3.88;;;;;;;18.17;41.17;101533.75;4935114;28;20052;-63
2022/10/03 10:30:21;;;;;;;19.93;3.67;;;;;;;18.31;40.70;101536.47;4936195;28;20050;-64
2022/10/03 10:33:10;;;;;;;14.90;3.05;;;;;;;18.67;40.19;101523.88;4936373;29;20055;-64
2022/10/03 10:35:51;;;;;;;13.77;2.90;;;;;;;17.34;42.70;101533.06;4936057;29;20044;-63
2022/10/03 10:38:24;;;;;;;15.95;2.72;;;;;;;18.06;41.14;101529.63;4935793;29;20047;-65
2022/10/03 10:41:36;;;;;;;18.05;3.55;;;;;;;18.68;39.84;101522.81;4933839;29;20079;-63
2022/10/03 10:44:22;;;;;;;;;;;;;;;18.36;39.87;101529.63;4916747;29;20063;-64
2022/10/03 10:47:00;;;;;;;17.67;3.80;;;;;;;18.57;39.26;101517.91;4916794;29;19923;-65
2022/10/03 10:49:45;;;;;;;12.30;2.45;;;;;;;18.01;40.16;101527.50;4911478;29;20055;-66
2022/10/03 10:52:36;;;;;;;18.65;2.78;;;;;;;16.91;42.40;101524.59;4923970;29;20054;-65
2022/10/03 10:55:31;;;;;;;13.60;2.10;;;;;;;16.96;42.54;101524.06;4917409;29;20059;-63
2022/10/03 10:58:16;;;;;;;12.52;2.58;;;;;;;16.81;43.18;101515.88;4916511;29;20052;-64
2022/10/03 11:01:20;;;;;;;15.77;2.85;;;;;;;16.75;43.70;101522.00;4917227;29;20044;-64
2022/10/03 11:04:24;;;;;;;17.35;2.80;;;;;;;16.89;43.71;101518.53;4917208;29;20059;-64
2022/10/03 11:07:03;;;;;;;15.93;2.78;;;;;;;16.44;44.78;101520.19;4917381;29;20079;-65
2022/10/03 11:09:44;;;;;;;14.57;2.95;;;;;;;16.04;46.01;101526.69;4916611;29;20071;-64
2022/10/03 11:12:33;;;;;;;17.57;3.30;;;;;;;16.09;45.42;101527.84;4916466;29;20127;-64
2022/10/03 11:15:06;;;;;;;15.52;2.65;;;;;;;16.02;45.53;101534.13;4916824;29;20048;-63
2022/10/03 11:17:36;;;;;;;17.70;2.83;;;;;;;16.14;45.30;101530.03;4916651;29;20052;-64
2022/10/03 11:20:40;;;;;;;17.43;2.93;;;;;;;15.83;46.33;101522.72;4916126;29;20500;-63
2022/10/03 11:23:27;;;;;;;19.50;3.30;;;;;;;15.86;46.51;101526.94;4924536;29;20051;-63
2022/10/03 11:26:21;;;;;;;16.77;3.63;;;;;;;15.91;47.19;101525.38;4935123;28;20051;-69
2022/10/03 11:29:17;;;;;;;14.20;2.70;;;;;;;15.81;47.79;101532.03;4933420;28;20047;-62
2022/10/03 11:32:35;;;;;;;21.33;2.63;;;;;;;15.36;48.94;101526.22;4934415;28;20044;-63
2022/10/03 11:35:21;;;;;;;10.20;2.40;;;;;;;15.41;49.15;101529.25;4905055;28;20055;-64
2022/10/03 11:38:03;;;;;;;14.10;2.25;;;;;;;15.45;49.58;101533.28;4934588;28;20047;-65
2022/10/03 11:40:48;;;;;;;12.82;2.90;;;;;;;15.27;49.66;101538.06;4934092;29;20059;-66
2022/10/03 11:43:47;;;;;;;11.27;2.65;;;;;;;14.98;50.94;101538.56;4953757;28;20061;-65
2022/10/03 11:46:13;;;;;;;12.07;2.72;;;;;;;14.99;51.21;101529.47;4952580;28;20411;-64
2022/10/03 11:48:53;;;;;;;14.73;2.88;;;;;;;14.79;52.40;101534.38;4953929;28;20066;-63
2022/10/03 11:51:59;;;;;;;13.32;2.63;;;;;;;15.16;51.71;101541.97;4952430;29;20047;-64
2022/10/03 11:54:29;;;;;;;16.58;3.00;;;;;;;15.22;51.90;101549.41;4900459;29;20051;-73
2022/10/03 11:57:26;;;;;;;12.45;2.45;;;;;;;15.65;51.31;101541.06;4915820;29;20496;-73
2022/10/03 12:00:17;;;;;;;20.20;2.95;;;;;;;15.93;50.76;101539.59;4915582;29;20045;-74
2022/10/03 12:03:05;;;;;;;17.60;3.08;;;;;;;15.71;51.25;101527.69;4914523;29;20048;-73
2022/10/03 12:09:21;;;;;;;16.88;3.03;;;;;;;15.51;52.37;101534.47;4915787;29;20051;-73
2022/10/03 12:11:57;;;;;;;16.80;2.70;;;;;;;15.34;53.88;101532.81;4928473;29;20048;-73
2022/10/03 12:14:43;;;;;;;22.17;3.97;;;;;;;14.89;55.98;101529.66;4930151;29;20514;-72
2022/10/03 12:17:17;;;;;;;18.65;3.65;;;;;;;15.13;55.52;101517.97;4929248;29;20068;-72
2022/10/03 12:20:16;;;;;;;25.17;3.53;;;;;;;15.69;54.76;101509.94;4930009;29;20056;-72
2022/10/03 12:23:13;;;;;;;17.77;3.55;;;;;;;16.60;53.40;101509.25;4931745;29;20048;-73
2022/10/03 12:25:44;;;;;;;21.77;3.10;;;;;;;17.73;50.78;101518.38;4931975;29;20088;-71
2022/10/03 12:28:24;;;;;;;20.40;3.67;;;;;;;17.70;50.50;101514.16;4927258;29;20059;-72
2022/10/03 12:31:13;;;;;;;14.35;3.08;;;;;;;18.06;46.49;101506.06;4928259;29;20273;-71
2022/10/03 12:34:15;;;;;;;12.50;2.67;;;;;;;18.34;45.94;101508.06;4923229;29;20058;-71
2022/10/03 12:36:52;;;;;;;12.82;2.72;;;;;;;17.88;46.13;101513.75;4929144;29;20048;-73
2022/10/03 12:39:54;;;;;;;14.30;2.42;;;;;;;17.29;47.26;101509.16;4928875;29;20123;-73
2022/10/03 12:42:45;;;;;;;20.42;3.38;;;;;;;16.53;48.92;101510.16;4949114;28;20057;-74
2022/10/03 12:45:23;;;;;;;16.30;3.13;;;;;;;16.07;49.57;101510.09;4964847;28;20051;-72
2022/10/03 12:48:00;;;;;;;14.80;2.28;;;;;;;15.65;50.83;101509.44;4970153;28;20039;-71
2022/10/03 12:50:42;;;;;;;23.25;4.10;;;;;;;15.65;51.43;101506.72;4969816;28;20047;-72
2022/10/03 12:53:14;;;;;;;13.30;2.53;;;;;;;15.34;50.86;101500.38;4967700;28;20131;-73
2022/10/03 12:55:51;;;;;;;12.75;3.45;;;;;;;15.62;49.88;101507.03;4967803;28;20054;-71
2022/10/03 12:58:29;;;;;;;12.80;2.10;;;;;;;15.70;49.46;101496.22;4969471;28;20061;-73
2022/10/03 13:01:21;;;;;;;10.93;2.58;;;;;;;15.39;49.21;101492.56;4969692;28;20063;-73
2022/10/03 13:04:00;;;;;;;10.18;1.75;;;;;;;15.44;48.99;101501.03;4968803;28;20083;-73
2022/10/03 13:07:02;;;;;;;11.73;2.33;;;;;;;15.52;49.40;101505.56;4973595;28;20054;-73
2022/10/03 13:10:03;;;;;;;13.63;2.05;;;;;;;15.67;48.68;101495.72;4967493;28;20103;-72
2022/10/03 13:12:49;;;;;;;9.48;2.05;;;;;;;15.87;48.40;101507.81;4963222;28;20046;-73
2022/10/03 13:15:41;;;;;;;9.85;2.22;;;;;;;15.37;49.55;101489.22;4974376;28;20051;-73
2022/10/03 13:18:24;;;;;;;9.93;1.77;;;;;;;15.50;49.29;101503.03;4967068;28;20051;-74
2022/10/03 13:21:12;;;;;;;15.95;2.15;;;;;;;15.22;49.41;101498.03;4963462;28;20051;-72
2022/10/03 13:24:10;;;;;;;8.35;2.03;;;;;;;14.97;49.83;101491.81;4961017;28;20047;-74
2022/10/03 13:26:51;;;;;;;19.25;1.77;;;;;;;15.14;48.90;101495.34;4960484;28;20415;-74
2022/10/03 13:29:24;;;;;;;8.93;2.03;;;;;;;15.45;48.08;101497.28;4954869;28;20062;-74
2022/10/03 13:32:31;;;;;;;12.02;2.17;;;;;;;15.43;48.84;101502.03;4956743;28;20045;-74
2022/10/03 13:38:55;;;;;;;15.02;2.58;;;;;;;15.36;48.49;101503.72;4914830;28;20062;-74
2022/10/03 13:41:28;;;;;;;10.93;2.40;;;;;;;15.34;48.50;101511.19;4935309;28;20051;-74
2022/10/03 13:44:16;;;;;;;11.95;2.03;;;;;;;15.42;48.55;101505.75;4956275;28;20062;-74
2022/10/03 13:47:01;;;;;;;10.02;1.92;;;;;;;15.44;48.83;101507.28;4955793;28;20499;-74
2022/10/03 13:49:42;;;;;;;15.35;2.55;;;;;;;15.57;48.35;101506.72;4956689;28;20047;-75
2022/10/03 13:52:41;;;;;;;7.57;2.13;;;;;;;15.37;48.87;101505.44;4956993;28;20050;-73
2022/10/03 13:55:17;;;;;;;18.02;2.42;;;;;;;15.43;48.16;101505.59;4955962;28;20058;-73
2022/10/03 13:58:08;;;;;;;12.32;2.25;;;;;;;15.34;49.07;101508.47;4956228;28;20055;-74
2022/10/03 14:01:02;;;;;;;15.80;2.60;;;;;;;15.50;48.86;101505.75;4956053;28;20050;-72
2022/10/03 14:03:32;;;;;;;15.20;2.75;;;;;;;15.28;49.79;101512.72;4956398;28;20126;-73
2022/10/03 14:06:09;;;;;;;18.27;2.60;;;;;;;15.00;50.74;101512.25;4955568;28;20047;-74
2022/10/03 14:08:57;;;;;;;13.55;2.45;;;;;;;15.06;50.52;101508.88;4953989;28;20506;-74
2022/10/03 14:11:31;;;;;;;18.05;2.92;;;;;;;15.07;50.67;101510.53;4955876;28;21595;-73
2022/10/03 14:14:17;;;;;;;18.63;2.90;;;;;;;14.95;51.03;101517.31;4954704;28;20039;-73
2022/10/03 14:17:01;;;;;;;18.25;2.58;;;;;;;14.71;51.82;101515.44;4954249;28;20050;-73
2022/10/03 14:19:45;;;;;;;12.52;2.15;;;;;;;14.80;51.53;101508.19;4955088;28;20051;-75
2022/10/03 14:22:18;;;;;;;14.13;2.70;;;;;;;15.17;50.17;101513.91;4953786;28;20051;-75
2022/10/03 14:25:11;;;;;;;12.90;2.42;;;;;;;15.01;50.51;101513.91;4953794;28;20044;-75
2022/10/03 14:27:49;;;;;;;18.17;2.80;;;;;;;14.87;50.89;101511.91;4953969;28;20043;-75
2022/10/03 14:30:19;;;;;;;21.95;3.10;;;;;;;14.98;50.37;101507.03;4955275;28;20106;-74
2022/10/03 14:32:58;;;;;;;15.40;2.80;;;;;;;14.99;49.12;101506.00;4954354;28;20050;-75
2022/10/03 14:35:36;;;;;;;16.25;2.38;;;;;;;15.18;48.46;101506.63;4954525;28;20490;-74
2022/10/03 14:38:22;;;;;;;15.77;2.78;;;;;;;15.01;49.21;101501.25;4954632;28;20074;-75
2022/10/03 14:40:53;;;;;;;14.07;3.03;;;;;;;15.25;48.09;101507.63;4952573;28;20534;-74
2022/10/03 14:43:46;;;;;;;17.85;3.15;;;;;;;14.87;48.66;101509.22;4916588;29;20051;-74
2022/10/03 14:46:14;;;;;;;19.10;3.33;;;;;;;15.22;48.33;101507.97;4885521;29;20048;-74
2022/10/03 14:48:48;;;;;;;16.45;3.17;;;;;;;15.05;48.50;101507.19;4915205;29;20051;-74
2022/10/03 14:51:22;;;;;;;16.27;2.70;;;;;;;15.10;48.54;101499.41;4915460;29;20411;-75
2022/10/03 14:54:25;;;;;;;17.10;3.08;;;;;;;15.17;48.62;101500.41;4909436;29;20048;-73
2022/10/03 14:56:53;;;;;;;15.73;3.17;;;;;;;15.18;48.62;101499.38;4872909;29;20092;-74
2022/10/03 14:59:25;;;;;;;13.80;2.75;;;;;;;15.10;48.96;101501.25;4876863;29;20049;-74
2022/10/03 15:01:55;;;;;;;19.33;3.40;;;;;;;14.93;49.35;101498.56;4876200;29;20061;-74
2022/10/03 15:04:40;;;;;;;17.70;2.95;;;;;;;15.00;48.92;101501.44;4875839;29;20135;-74
2022/10/03 15:07:07;;;;;;;17.58;2.90;;;;;;;15.07;48.72;101493.50;4876077;29;20052;-73
2022/10/03 15:09:36;;;;;;;15.18;3.70;;;;;;;15.25;48.04;101494.13;4875292;29;20057;-74
2022/10/03 15:12:19;;;;;;;15.45;3.25;;;;;;;14.81;49.50;101490.97;4874267;29;20056;-72
2022/10/03 15:15:12;;;;;;;18.10;4.95;;;;;;;14.95;48.59;101488.44;4875555;29;20056;-75
2022/10/03 15:17:48;;;;;;;16.77;4.10;;;;;;;15.04;48.74;101489.25;4865911;29;20528;-76
2022/10/03 15:20:19;;;;;;;15.13;3.00;;;;;;;15.17;48.30;101484.19;4870911;29;20152;-76
2022/10/03 15:22:52;;;;;;;14.45;3.70;;;;;;;15.01;48.75;101489.59;4872669;29;20048;-77
2022/10/03 15:25:40;;;;;;;19.30;3.58;;;;;;;15.11;48.62;101492.97;4873431;29;20489;-77
2022/10/03 15:28:18;;;;;;;15.93;2.42;;;;;;;15.00;48.61;101491.47;4873164;29;20520;-75
2022/10/03 15:30:46;;;;;;;13.27;2.55;;;;;;;14.72;49.06;101495.53;4890746;29;20048;-76
2022/10/03 15:33:18;;;;;;;21.90;3.13;;;;;;;14.86;48.93;101492.16;4909506;29;20055;-75
2022/10/03 15:35:51;;;;;;;17.15;2.90;;;;;;;15.05;48.56;101495.50;4913579;29;20044;-77
2022/10/03 15:38:25;;;;;;;16.80;2.67;;;;;;;15.15;48.31;101493.47;4913275;29;20052;-77
2022/10/03 15:41:15;;;;;;;9.82;2.17;;;;;;;14.92;49.08;101491.47;4913037;29;20051;-76
2022/10/03 15:43:55;;;;;;;24.48;4.03;;;;;;;14.93;49.17;101500.44;4913656;29;20048;-76
2022/10/03 15:46:35;;;;;;;14.07;3.17;;;;;;;15.10;48.83;101495.84;4914386;29;20048;-75
2022/10/03 15:49:07;;;;;;;16.08;3.20;;;;;;;15.02;48.98;101494.00;4914893;29;20055;-76
2022/10/03 15:51:37;;;;;;;19.30;3.10;;;;;;;15.04;49.05;101496.53;4914507;29;20048;-78
2022/10/03 15:54:08;;;;;;;14.25;3.58;;;;;;;14.84;49.59;101496.03;4915507;29;20044;-76
2022/10/03 15:56:40;;;;;;;16.55;2.95;;;;;;;14.77;50.11;101496.72;4934165;29;20047;-75
2022/10/03 15:59:16;;;;;;;17.17;4.15;;;;;;;14.77;50.11;101502.13;4935492;28;20385;-77
2022/10/03 16:01:49;;;;;;;19.40;3.85;;;;;;;14.84;50.02;101504.13;4934981;28;20052;-77